sensor_id;sensor_type;location;lat;lon;timestamp;temperature;humidity
22716;DHT22;11525;51.152;4.456;2023-04-25T00:01:21;9.80;99.90
22716;DHT22;11525;51.152;4.456;2023-04-25T00:03:49;9.90;99.90
22716;DHT22;11525;51.152;4.456;2023-04-25T00:06:16;9.70;99.90
22716;DHT22;11525;51.152;4.456;2023-04-25T00:08:43;9.70;99.90
22716;DHT22;11525;51.152;4.456;2023-04-25T00:11:09;9.70;99.90
22716;DHT22;11525;51.152;4.456;2023-04-25T00:13:35;9.60;99.90
22716;DHT22;11525;51.152;4.456;2023-04-25T00:16:00;9.70;99.90
22716;DHT22;11525;51.152;4.456;2023-04-25T00:18:28;9.60;99.90
22716;DHT22;11525;51.152;4.456;2023-04-25T00:20:54;9.70;99.90
22716;DHT22;11525;51.152;4.456;2023-04-25T00:23:20;9.70;99.90
22716;DHT22;11525;51.152;4.456;2023-04-25T00:25:48;9.70;99.90
22716;DHT22;11525;51.152;4.456;2023-04-25T00:28:15;9.70;99.90
22716;DHT22;11525;51.152;4.456;2023-04-25T00:30:41;9.60;99.90
22716;DHT22;11525;51.152;4.456;2023-04-25T00:33:08;9.70;99.90
22716;DHT22;11525;51.152;4.456;2023-04-25T00:35:34;9.60;99.90
22716;DHT22;11525;51.152;4.456;2023-04-25T00:38:00;9.60;99.90
22716;DHT22;11525;51.152;4.456;2023-04-25T00:40:26;9.70;99.90
22716;DHT22;11525;51.152;4.456;2023-04-25T00:42:52;9.70;99.90
22716;DHT22;11525;51.152;4.456;2023-04-25T00:45:18;9.70;99.90
22716;DHT22;11525;51.152;4.456;2023-04-25T00:47:45;9.70;99.90
22716;DHT22;11525;51.152;4.456;2023-04-25T00:50:12;9.70;99.90
22716;DHT22;11525;51.152;4.456;2023-04-25T00:52:43;9.60;99.90
22716;DHT22;11525;51.152;4.456;2023-04-25T00:55:10;9.60;99.90
22716;DHT22;11525;51.152;4.456;2023-04-25T00:57:36;9.60;99.90
22716;DHT22;11525;51.152;4.456;2023-04-25T01:00:06;9.60;99.90
22716;DHT22;11525;51.152;4.456;2023-04-25T01:02:35;9.60;99.90
22716;DHT22;11525;51.152;4.456;2023-04-25T01:05:01;9.50;99.90
22716;DHT22;11525;51.152;4.456;2023-04-25T01:07:27;9.60;99.90
22716;DHT22;11525;51.152;4.456;2023-04-25T01:09:53;9.60;99.90
22716;DHT22;11525;51.152;4.456;2023-04-25T01:12:19;9.50;99.90
22716;DHT22;11525;51.152;4.456;2023-04-25T01:14:46;9.40;99.90
22716;DHT22;11525;51.152;4.456;2023-04-25T01:17:12;9.50;99.90
22716;DHT22;11525;51.152;4.456;2023-04-25T01:19:38;9.50;99.90
22716;DHT22;11525;51.152;4.456;2023-04-25T01:22:04;9.30;99.90
22716;DHT22;11525;51.152;4.456;2023-04-25T01:24:32;9.30;99.90
22716;DHT22;11525;51.152;4.456;2023-04-25T01:26:58;9.30;99.90
22716;DHT22;11525;51.152;4.456;2023-04-25T01:29:26;9.40;99.90
22716;DHT22;11525;51.152;4.456;2023-04-25T01:31:53;9.40;99.90
22716;DHT22;11525;51.152;4.456;2023-04-25T01:34:19;9.40;99.90
22716;DHT22;11525;51.152;4.456;2023-04-25T01:36:48;9.60;99.90
22716;DHT22;11525;51.152;4.456;2023-04-25T01:39:15;9.50;99.90
22716;DHT22;11525;51.152;4.456;2023-04-25T01:41:42;9.60;99.90
22716;DHT22;11525;51.152;4.456;2023-04-25T01:44:08;9.50;99.90
22716;DHT22;11525;51.152;4.456;2023-04-25T01:46:34;9.40;99.90
22716;DHT22;11525;51.152;4.456;2023-04-25T01:49:00;9.50;99.90
22716;DHT22;11525;51.152;4.456;2023-04-25T01:51:26;9.40;99.90
22716;DHT22;11525;51.152;4.456;2023-04-25T01:53:52;9.40;99.90
22716;DHT22;11525;51.152;4.456;2023-04-25T01:56:19;9.50;99.90
22716;DHT22;11525;51.152;4.456;2023-04-25T01:58:46;9.50;99.90
22716;DHT22;11525;51.152;4.456;2023-04-25T02:01:11;9.40;99.90
22716;DHT22;11525;51.152;4.456;2023-04-25T02:03:37;9.40;99.90
22716;DHT22;11525;51.152;4.456;2023-04-25T02:06:03;9.30;99.90
22716;DHT22;11525;51.152;4.456;2023-04-25T02:08:29;9.30;99.90
22716;DHT22;11525;51.152;4.456;2023-04-25T02:10:55;9.20;99.90
22716;DHT22;11525;51.152;4.456;2023-04-25T02:13:21;9.10;99.90
22716;DHT22;11525;51.152;4.456;2023-04-25T02:15:47;9.10;99.90
22716;DHT22;11525;51.152;4.456;2023-04-25T02:18:13;9.30;99.90
22716;DHT22;11525;51.152;4.456;2023-04-25T02:20:41;9.30;99.90
22716;DHT22;11525;51.152;4.456;2023-04-25T02:23:07;9.30;99.90
22716;DHT22;11525;51.152;4.456;2023-04-25T02:25:33;9.30;99.90
22716;DHT22;11525;51.152;4.456;2023-04-25T02:27:59;9.30;99.90
22716;DHT22;11525;51.152;4.456;2023-04-25T02:30:25;9.20;99.90
22716;DHT22;11525;51.152;4.456;2023-04-25T02:32:51;9.30;99.90
22716;DHT22;11525;51.152;4.456;2023-04-25T02:35:17;9.20;99.90
22716;DHT22;11525;51.152;4.456;2023-04-25T02:37:43;9.10;99.90
22716;DHT22;11525;51.152;4.456;2023-04-25T02:40:09;8.80;99.90
22716;DHT22;11525;51.152;4.456;2023-04-25T02:42:35;8.60;99.90
22716;DHT22;11525;51.152;4.456;2023-04-25T02:45:02;8.40;99.90
22716;DHT22;11525;51.152;4.456;2023-04-25T02:47:28;8.20;99.90
22716;DHT22;11525;51.152;4.456;2023-04-25T02:49:54;8.20;99.90
22716;DHT22;11525;51.152;4.456;2023-04-25T02:52:20;8.20;99.90
22716;DHT22;11525;51.152;4.456;2023-04-25T02:54:46;8.20;99.90
22716;DHT22;11525;51.152;4.456;2023-04-25T02:57:12;8.20;99.90
22716;DHT22;11525;51.152;4.456;2023-04-25T02:59:38;8.10;99.90
22716;DHT22;11525;51.152;4.456;2023-04-25T03:02:04;8.10;99.90
22716;DHT22;11525;51.152;4.456;2023-04-25T03:04:30;8.20;99.90
22716;DHT22;11525;51.152;4.456;2023-04-25T03:06:55;8.20;99.90
22716;DHT22;11525;51.152;4.456;2023-04-25T03:09:21;8.30;99.90
22716;DHT22;11525;51.152;4.456;2023-04-25T03:11:47;8.20;99.90
22716;DHT22;11525;51.152;4.456;2023-04-25T03:14:13;8.20;99.90
22716;DHT22;11525;51.152;4.456;2023-04-25T03:16:39;8.20;99.90
22716;DHT22;11525;51.152;4.456;2023-04-25T03:19:05;8.30;99.90
22716;DHT22;11525;51.152;4.456;2023-04-25T03:21:33;8.30;99.90
22716;DHT22;11525;51.152;4.456;2023-04-25T03:24:03;8.40;99.90
22716;DHT22;11525;51.152;4.456;2023-04-25T03:26:29;8.50;99.90
22716;DHT22;11525;51.152;4.456;2023-04-25T03:28:55;8.40;99.90
22716;DHT22;11525;51.152;4.456;2023-04-25T03:31:21;8.40;99.90
22716;DHT22;11525;51.152;4.456;2023-04-25T03:33:47;8.40;99.90
22716;DHT22;11525;51.152;4.456;2023-04-25T03:36:13;8.30;99.90
22716;DHT22;11525;51.152;4.456;2023-04-25T03:38:39;8.30;99.90
22716;DHT22;11525;51.152;4.456;2023-04-25T03:41:06;8.30;99.90
22716;DHT22;11525;51.152;4.456;2023-04-25T03:43:32;8.30;99.90
22716;DHT22;11525;51.152;4.456;2023-04-25T03:45:58;8.20;99.90
22716;DHT22;11525;51.152;4.456;2023-04-25T03:48:25;8.20;99.90
22716;DHT22;11525;51.152;4.456;2023-04-25T03:50:52;8.20;99.90
22716;DHT22;11525;51.152;4.456;2023-04-25T03:53:18;8.20;99.90
22716;DHT22;11525;51.152;4.456;2023-04-25T03:55:43;8.20;99.90
22716;DHT22;11525;51.152;4.456;2023-04-25T03:58:09;8.20;99.90
22716;DHT22;11525;51.152;4.456;2023-04-25T04:00:35;8.20;99.90
22716;DHT22;11525;51.152;4.456;2023-04-25T04:03:02;8.20;99.90
22716;DHT22;11525;51.152;4.456;2023-04-25T04:05:27;8.20;99.90
22716;DHT22;11525;51.152;4.456;2023-04-25T04:07:54;8.20;99.90
22716;DHT22;11525;51.152;4.456;2023-04-25T04:10:22;8.20;99.90
22716;DHT22;11525;51.152;4.456;2023-04-25T04:12:47;8.30;99.90
22716;DHT22;11525;51.152;4.456;2023-04-25T04:15:13;8.20;99.90
22716;DHT22;11525;51.152;4.456;2023-04-25T04:17:39;8.20;99.90
22716;DHT22;11525;51.152;4.456;2023-04-25T04:20:06;8.00;99.90
22716;DHT22;11525;51.152;4.456;2023-04-25T04:22:33;7.90;99.90
22716;DHT22;11525;51.152;4.456;2023-04-25T04:24:59;7.90;99.90
22716;DHT22;11525;51.152;4.456;2023-04-25T04:27:24;8.00;99.90
22716;DHT22;11525;51.152;4.456;2023-04-25T04:29:50;8.00;99.90
22716;DHT22;11525;51.152;4.456;2023-04-25T04:32:18;7.90;99.90
22716;DHT22;11525;51.152;4.456;2023-04-25T04:34:44;7.80;99.90
22716;DHT22;11525;51.152;4.456;2023-04-25T04:37:13;7.80;99.90
22716;DHT22;11525;51.152;4.456;2023-04-25T04:39:38;7.90;99.90
22716;DHT22;11525;51.152;4.456;2023-04-25T04:42:04;7.90;99.90
22716;DHT22;11525;51.152;4.456;2023-04-25T04:44:30;8.00;99.90
22716;DHT22;11525;51.152;4.456;2023-04-25T04:47:00;8.00;99.90
22716;DHT22;11525;51.152;4.456;2023-04-25T04:49:25;8.00;99.90
22716;DHT22;11525;51.152;4.456;2023-04-25T04:51:51;8.00;99.90
22716;DHT22;11525;51.152;4.456;2023-04-25T04:54:17;8.00;99.90
22716;DHT22;11525;51.152;4.456;2023-04-25T04:56:43;8.10;99.90
22716;DHT22;11525;51.152;4.456;2023-04-25T04:59:09;8.30;99.90
22716;DHT22;11525;51.152;4.456;2023-04-25T05:01:37;8.30;99.90
22716;DHT22;11525;51.152;4.456;2023-04-25T05:04:02;8.30;99.90
22716;DHT22;11525;51.152;4.456;2023-04-25T05:06:30;8.40;99.90
22716;DHT22;11525;51.152;4.456;2023-04-25T05:08:56;8.50;99.90
22716;DHT22;11525;51.152;4.456;2023-04-25T05:11:23;8.50;99.90
22716;DHT22;11525;51.152;4.456;2023-04-25T05:13:51;8.50;99.90
22716;DHT22;11525;51.152;4.456;2023-04-25T05:16:17;8.50;99.90
22716;DHT22;11525;51.152;4.456;2023-04-25T05:18:43;8.50;99.90
22716;DHT22;11525;51.152;4.456;2023-04-25T05:21:09;8.60;99.90
22716;DHT22;11525;51.152;4.456;2023-04-25T05:23:35;8.50;99.90
22716;DHT22;11525;51.152;4.456;2023-04-25T05:26:01;8.50;99.90
22716;DHT22;11525;51.152;4.456;2023-04-25T05:28:27;8.50;99.90
22716;DHT22;11525;51.152;4.456;2023-04-25T05:30:52;8.50;99.90
22716;DHT22;11525;51.152;4.456;2023-04-25T05:33:19;8.50;99.90
22716;DHT22;11525;51.152;4.456;2023-04-25T05:35:44;8.70;99.90
22716;DHT22;11525;51.152;4.456;2023-04-25T05:38:11;8.80;99.90
22716;DHT22;11525;51.152;4.456;2023-04-25T05:40:36;8.80;99.90
22716;DHT22;11525;51.152;4.456;2023-04-25T05:43:02;8.80;99.90
22716;DHT22;11525;51.152;4.456;2023-04-25T05:45:28;8.80;99.90
22716;DHT22;11525;51.152;4.456;2023-04-25T05:47:54;8.90;99.90
22716;DHT22;11525;51.152;4.456;2023-04-25T05:50:20;8.80;99.90
22716;DHT22;11525;51.152;4.456;2023-04-25T05:52:46;8.70;99.90
22716;DHT22;11525;51.152;4.456;2023-04-25T05:55:12;8.80;99.90
22716;DHT22;11525;51.152;4.456;2023-04-25T05:57:41;8.90;99.90
22716;DHT22;11525;51.152;4.456;2023-04-25T06:00:09;9.00;99.90
22716;DHT22;11525;51.152;4.456;2023-04-25T06:02:35;9.20;99.90
22716;DHT22;11525;51.152;4.456;2023-04-25T06:05:01;9.30;99.90
22716;DHT22;11525;51.152;4.456;2023-04-25T06:07:29;9.30;99.90
22716;DHT22;11525;51.152;4.456;2023-04-25T06:09:58;9.50;99.90
22716;DHT22;11525;51.152;4.456;2023-04-25T06:12:24;9.60;99.90
22716;DHT22;11525;51.152;4.456;2023-04-25T06:14:50;9.80;99.90
22716;DHT22;11525;51.152;4.456;2023-04-25T06:17:16;10.00;99.90
22716;DHT22;11525;51.152;4.456;2023-04-25T06:19:42;10.20;99.90
22716;DHT22;11525;51.152;4.456;2023-04-25T06:22:08;10.30;99.90
22716;DHT22;11525;51.152;4.456;2023-04-25T06:24:34;10.30;99.90
22716;DHT22;11525;51.152;4.456;2023-04-25T06:27:00;10.40;99.90
22716;DHT22;11525;51.152;4.456;2023-04-25T06:29:26;10.30;99.90
22716;DHT22;11525;51.152;4.456;2023-04-25T06:31:52;10.30;99.90
22716;DHT22;11525;51.152;4.456;2023-04-25T06:34:18;10.30;99.90
22716;DHT22;11525;51.152;4.456;2023-04-25T06:36:44;10.20;99.90
22716;DHT22;11525;51.152;4.456;2023-04-25T06:39:10;10.10;99.90
22716;DHT22;11525;51.152;4.456;2023-04-25T06:41:37;10.00;99.90
22716;DHT22;11525;51.152;4.456;2023-04-25T06:44:04;9.90;99.90
22716;DHT22;11525;51.152;4.456;2023-04-25T06:46:31;9.80;99.90
22716;DHT22;11525;51.152;4.456;2023-04-25T06:48:59;9.50;99.90
22716;DHT22;11525;51.152;4.456;2023-04-25T06:51:25;9.30;99.90
22716;DHT22;11525;51.152;4.456;2023-04-25T06:53:54;9.20;99.90
22716;DHT22;11525;51.152;4.456;2023-04-25T06:56:20;9.40;99.90
22716;DHT22;11525;51.152;4.456;2023-04-25T06:58:47;9.60;99.90
22716;DHT22;11525;51.152;4.456;2023-04-25T07:01:13;10.00;99.90
22716;DHT22;11525;51.152;4.456;2023-04-25T07:03:39;10.00;99.90
22716;DHT22;11525;51.152;4.456;2023-04-25T07:06:05;9.80;99.90
22716;DHT22;11525;51.152;4.456;2023-04-25T07:08:31;9.60;99.90
22716;DHT22;11525;51.152;4.456;2023-04-25T07:10:57;9.60;99.90
22716;DHT22;11525;51.152;4.456;2023-04-25T07:13:23;9.60;99.90
22716;DHT22;11525;51.152;4.456;2023-04-25T07:15:49;9.60;99.90
22716;DHT22;11525;51.152;4.456;2023-04-25T07:18:14;9.70;99.90
22716;DHT22;11525;51.152;4.456;2023-04-25T07:20:41;9.90;99.90
22716;DHT22;11525;51.152;4.456;2023-04-25T07:23:07;10.30;99.90
22716;DHT22;11525;51.152;4.456;2023-04-25T07:25:32;10.60;99.90
22716;DHT22;11525;51.152;4.456;2023-04-25T07:27:58;10.70;99.90
22716;DHT22;11525;51.152;4.456;2023-04-25T07:30:24;10.70;99.90
22716;DHT22;11525;51.152;4.456;2023-04-25T07:32:50;10.60;99.90
22716;DHT22;11525;51.152;4.456;2023-04-25T07:35:16;10.70;99.90
22716;DHT22;11525;51.152;4.456;2023-04-25T07:37:42;10.70;99.90
22716;DHT22;11525;51.152;4.456;2023-04-25T07:40:09;11.20;99.90
22716;DHT22;11525;51.152;4.456;2023-04-25T07:42:35;11.50;99.90
22716;DHT22;11525;51.152;4.456;2023-04-25T07:45:01;11.70;99.90
22716;DHT22;11525;51.152;4.456;2023-04-25T07:47:26;13.40;99.90
22716;DHT22;11525;51.152;4.456;2023-04-25T07:49:52;15.00;99.90
22716;DHT22;11525;51.152;4.456;2023-04-25T07:52:18;17.60;99.90
22716;DHT22;11525;51.152;4.456;2023-04-25T07:54:43;19.80;98.10
22716;DHT22;11525;51.152;4.456;2023-04-25T07:57:09;22.20;90.90
22716;DHT22;11525;51.152;4.456;2023-04-25T07:59:35;23.80;78.70
22716;DHT22;11525;51.152;4.456;2023-04-25T08:02:01;24.60;66.50
22716;DHT22;11525;51.152;4.456;2023-04-25T08:04:27;24.10;61.10
22716;DHT22;11525;51.152;4.456;2023-04-25T08:06:53;23.80;61.60
22716;DHT22;11525;51.152;4.456;2023-04-25T08:09:20;23.20;60.50
22716;DHT22;11525;51.152;4.456;2023-04-25T08:11:46;23.20;59.40
22716;DHT22;11525;51.152;4.456;2023-04-25T08:14:12;22.00;60.00
22716;DHT22;11525;51.152;4.456;2023-04-25T08:16:38;21.10;62.30
22716;DHT22;11525;51.152;4.456;2023-04-25T08:19:04;19.80;64.60
22716;DHT22;11525;51.152;4.456;2023-04-25T08:21:30;18.60;68.60
22716;DHT22;11525;51.152;4.456;2023-04-25T08:23:57;17.00;73.80
22716;DHT22;11525;51.152;4.456;2023-04-25T08:26:24;14.90;79.00
22716;DHT22;11525;51.152;4.456;2023-04-25T08:28:50;13.80;87.20
22716;DHT22;11525;51.152;4.456;2023-04-25T08:31:16;13.20;90.80
22716;DHT22;11525;51.152;4.456;2023-04-25T08:33:42;12.70;91.40
22716;DHT22;11525;51.152;4.456;2023-04-25T08:36:08;12.30;92.00
22716;DHT22;11525;51.152;4.456;2023-04-25T08:38:33;11.90;94.00
22716;DHT22;11525;51.152;4.456;2023-04-25T08:41:00;12.00;96.50
22716;DHT22;11525;51.152;4.456;2023-04-25T08:43:27;13.00;96.50
22716;DHT22;11525;51.152;4.456;2023-04-25T08:45:59;15.80;91.30
22716;DHT22;11525;51.152;4.456;2023-04-25T08:48:27;18.30;84.60
22716;DHT22;11525;51.152;4.456;2023-04-25T08:50:55;19.60;71.00
22716;DHT22;11525;51.152;4.456;2023-04-25T08:53:29;20.80;68.60
22716;DHT22;11525;51.152;4.456;2023-04-25T08:55:56;21.10;64.50
22716;DHT22;11525;51.152;4.456;2023-04-25T08:58:23;22.60;60.40
22716;DHT22;11525;51.152;4.456;2023-04-25T09:00:50;21.40;59.70
22716;DHT22;11525;51.152;4.456;2023-04-25T09:03:17;20.80;62.30
22716;DHT22;11525;51.152;4.456;2023-04-25T09:05:42;19.30;62.30
22716;DHT22;11525;51.152;4.456;2023-04-25T09:08:08;18.20;68.70
22716;DHT22;11525;51.152;4.456;2023-04-25T09:10:35;18.00;67.80
22716;DHT22;11525;51.152;4.456;2023-04-25T09:13:23;18.70;68.50
22716;DHT22;11525;51.152;4.456;2023-04-25T09:15:51;18.30;67.40
22716;DHT22;11525;51.152;4.456;2023-04-25T09:18:28;19.00;66.60
22716;DHT22;11525;51.152;4.456;2023-04-25T09:20:56;19.80;62.20
22716;DHT22;11525;51.152;4.456;2023-04-25T09:23:23;19.70;61.00
22716;DHT22;11525;51.152;4.456;2023-04-25T09:25:50;19.80;61.80
22716;DHT22;11525;51.152;4.456;2023-04-25T09:28:22;21.10;60.80
22716;DHT22;11525;51.152;4.456;2023-04-25T09:30:49;23.20;59.20
22716;DHT22;11525;51.152;4.456;2023-04-25T09:33:15;24.60;54.30
22716;DHT22;11525;51.152;4.456;2023-04-25T09:35:42;24.30;51.60
22716;DHT22;11525;51.152;4.456;2023-04-25T09:38:12;25.20;51.50
22716;DHT22;11525;51.152;4.456;2023-04-25T09:40:43;23.80;51.90
22716;DHT22;11525;51.152;4.456;2023-04-25T09:43:10;24.00;49.40
22716;DHT22;11525;51.152;4.456;2023-04-25T09:45:42;20.60;55.60
22716;DHT22;11525;51.152;4.456;2023-04-25T09:48:11;18.40;59.30
22716;DHT22;11525;51.152;4.456;2023-04-25T09:50:38;17.10;62.60
22716;DHT22;11525;51.152;4.456;2023-04-25T09:53:05;16.00;64.20
22716;DHT22;11525;51.152;4.456;2023-04-25T09:55:35;15.60;67.20
22716;DHT22;11525;51.152;4.456;2023-04-25T09:58:04;15.40;70.10
22716;DHT22;11525;51.152;4.456;2023-04-25T10:00:32;15.10;67.30
22716;DHT22;11525;51.152;4.456;2023-04-25T10:03:01;15.10;68.70
22716;DHT22;11525;51.152;4.456;2023-04-25T10:05:30;14.20;69.00
22716;DHT22;11525;51.152;4.456;2023-04-25T10:07:58;14.10;72.60
22716;DHT22;11525;51.152;4.456;2023-04-25T10:10:24;14.30;74.50
22716;DHT22;11525;51.152;4.456;2023-04-25T10:12:53;14.20;76.50
22716;DHT22;11525;51.152;4.456;2023-04-25T10:15:20;14.20;78.10
22716;DHT22;11525;51.152;4.456;2023-04-25T10:17:48;14.10;77.30
22716;DHT22;11525;51.152;4.456;2023-04-25T10:20:14;14.00;81.60
22716;DHT22;11525;51.152;4.456;2023-04-25T10:22:44;13.80;82.80
22716;DHT22;11525;51.152;4.456;2023-04-25T10:25:10;13.80;81.10
22716;DHT22;11525;51.152;4.456;2023-04-25T10:27:36;14.00;80.20
22716;DHT22;11525;51.152;4.456;2023-04-25T10:32:32;14.20;80.60
22716;DHT22;11525;51.152;4.456;2023-04-25T10:35:19;13.90;83.70
22716;DHT22;11525;51.152;4.456;2023-04-25T10:38:08;14.00;85.40
22716;DHT22;11525;51.152;4.456;2023-04-25T10:40:35;14.30;85.90
22716;DHT22;11525;51.152;4.456;2023-04-25T10:45:59;14.40;81.20
22716;DHT22;11525;51.152;4.456;2023-04-25T10:48:29;14.40;79.30
22716;DHT22;11525;51.152;4.456;2023-04-25T10:51:08;14.40;80.40
22716;DHT22;11525;51.152;4.456;2023-04-25T10:53:34;14.40;80.40
22716;DHT22;11525;51.152;4.456;2023-04-25T10:56:08;14.30;79.50
22716;DHT22;11525;51.152;4.456;2023-04-25T10:58:34;14.30;79.60
22716;DHT22;11525;51.152;4.456;2023-04-25T11:01:01;14.80;77.70
22716;DHT22;11525;51.152;4.456;2023-04-25T11:03:27;15.10;78.20
22716;DHT22;11525;51.152;4.456;2023-04-25T11:05:52;15.50;78.10
22716;DHT22;11525;51.152;4.456;2023-04-25T11:08:35;15.60;76.20
22716;DHT22;11525;51.152;4.456;2023-04-25T11:11:05;15.80;74.60
22716;DHT22;11525;51.152;4.456;2023-04-25T11:13:31;15.90;72.80
22716;DHT22;11525;51.152;4.456;2023-04-25T11:15:57;16.10;72.20
22716;DHT22;11525;51.152;4.456;2023-04-25T11:18:26;16.10;69.90
22716;DHT22;11525;51.152;4.456;2023-04-25T11:20:52;15.80;71.00
22716;DHT22;11525;51.152;4.456;2023-04-25T11:23:18;15.60;70.70
22716;DHT22;11525;51.152;4.456;2023-04-25T11:25:44;15.50;71.70
22716;DHT22;11525;51.152;4.456;2023-04-25T11:28:10;15.40;71.90
22716;DHT22;11525;51.152;4.456;2023-04-25T11:30:35;15.10;72.60
22716;DHT22;11525;51.152;4.456;2023-04-25T11:33:01;15.20;73.50
22716;DHT22;11525;51.152;4.456;2023-04-25T11:35:28;15.20;71.50
22716;DHT22;11525;51.152;4.456;2023-04-25T11:37:54;15.00;77.40
22716;DHT22;11525;51.152;4.456;2023-04-25T11:40:20;14.80;73.10
22716;DHT22;11525;51.152;4.456;2023-04-25T11:42:46;14.50;76.30
22716;DHT22;11525;51.152;4.456;2023-04-25T11:45:13;14.50;78.20
22716;DHT22;11525;51.152;4.456;2023-04-25T11:47:39;14.50;68.90
22716;DHT22;11525;51.152;4.456;2023-04-25T11:50:06;14.30;72.10
22716;DHT22;11525;51.152;4.456;2023-04-25T11:52:40;14.40;71.70
22716;DHT22;11525;51.152;4.456;2023-04-25T11:55:17;14.00;67.70
22716;DHT22;11525;51.152;4.456;2023-04-25T11:57:45;14.00;74.70
22716;DHT22;11525;51.152;4.456;2023-04-25T12:00:16;13.90;75.20
22716;DHT22;11525;51.152;4.456;2023-04-25T12:02:47;14.20;76.40
22716;DHT22;11525;51.152;4.456;2023-04-25T12:05:14;14.70;74.50
22716;DHT22;11525;51.152;4.456;2023-04-25T12:07:43;14.60;76.70
22716;DHT22;11525;51.152;4.456;2023-04-25T12:10:11;14.50;79.50
22716;DHT22;11525;51.152;4.456;2023-04-25T12:12:37;14.40;79.20
22716;DHT22;11525;51.152;4.456;2023-04-25T12:17:38;14.00;78.80
22716;DHT22;11525;51.152;4.456;2023-04-25T12:20:12;14.00;78.50
22716;DHT22;11525;51.152;4.456;2023-04-25T12:22:41;14.00;79.00
22716;DHT22;11525;51.152;4.456;2023-04-25T12:25:13;13.90;79.50
22716;DHT22;11525;51.152;4.456;2023-04-25T12:27:39;13.70;78.90
22716;DHT22;11525;51.152;4.456;2023-04-25T12:30:08;13.70;80.20
22716;DHT22;11525;51.152;4.456;2023-04-25T12:32:33;13.80;80.30
22716;DHT22;11525;51.152;4.456;2023-04-25T12:34:59;13.80;78.70
22716;DHT22;11525;51.152;4.456;2023-04-25T12:37:25;13.80;79.00
22716;DHT22;11525;51.152;4.456;2023-04-25T12:39:51;13.90;78.30
22716;DHT22;11525;51.152;4.456;2023-04-25T12:42:17;13.50;75.90
22716;DHT22;11525;51.152;4.456;2023-04-25T12:44:42;13.60;78.80
22716;DHT22;11525;51.152;4.456;2023-04-25T12:47:08;13.70;76.20
22716;DHT22;11525;51.152;4.456;2023-04-25T12:49:34;13.90;79.40
22716;DHT22;11525;51.152;4.456;2023-04-25T12:52:00;13.90;76.40
22716;DHT22;11525;51.152;4.456;2023-04-25T12:54:25;13.70;78.10
22716;DHT22;11525;51.152;4.456;2023-04-25T12:56:51;13.80;79.50
22716;DHT22;11525;51.152;4.456;2023-04-25T12:59:18;13.70;77.70
22716;DHT22;11525;51.152;4.456;2023-04-25T13:01:43;13.30;78.40
22716;DHT22;11525;51.152;4.456;2023-04-25T13:04:10;12.80;80.90
22716;DHT22;11525;51.152;4.456;2023-04-25T13:06:36;13.00;82.20
22716;DHT22;11525;51.152;4.456;2023-04-25T13:09:02;13.10;83.40
22716;DHT22;11525;51.152;4.456;2023-04-25T13:11:28;13.10;85.70
22716;DHT22;11525;51.152;4.456;2023-04-25T13:13:55;13.30;84.90
22716;DHT22;11525;51.152;4.456;2023-04-25T13:16:21;13.50;84.40
22716;DHT22;11525;51.152;4.456;2023-04-25T13:18:46;13.80;83.20
22716;DHT22;11525;51.152;4.456;2023-04-25T13:21:12;13.80;81.10
22716;DHT22;11525;51.152;4.456;2023-04-25T13:23:38;14.30;81.00
22716;DHT22;11525;51.152;4.456;2023-04-25T13:26:04;14.50;78.80
22716;DHT22;11525;51.152;4.456;2023-04-25T13:28:29;14.80;75.10
22716;DHT22;11525;51.152;4.456;2023-04-25T13:30:55;15.20;79.60
22716;DHT22;11525;51.152;4.456;2023-04-25T13:33:23;15.50;75.00
22716;DHT22;11525;51.152;4.456;2023-04-25T13:35:49;15.60;73.40
22716;DHT22;11525;51.152;4.456;2023-04-25T13:38:24;15.90;72.20
22716;DHT22;11525;51.152;4.456;2023-04-25T13:40:51;15.60;74.30
22716;DHT22;11525;51.152;4.456;2023-04-25T13:43:20;15.70;74.70
22716;DHT22;11525;51.152;4.456;2023-04-25T13:45:47;15.20;73.40
22716;DHT22;11525;51.152;4.456;2023-04-25T13:48:13;15.30;77.10
22716;DHT22;11525;51.152;4.456;2023-04-25T13:50:39;15.20;75.30
22716;DHT22;11525;51.152;4.456;2023-04-25T13:53:04;15.00;74.20
22716;DHT22;11525;51.152;4.456;2023-04-25T13:55:30;14.90;75.70
22716;DHT22;11525;51.152;4.456;2023-04-25T13:57:56;15.00;75.20
22716;DHT22;11525;51.152;4.456;2023-04-25T14:00:22;15.30;75.90
22716;DHT22;11525;51.152;4.456;2023-04-25T14:02:48;15.40;74.30
22716;DHT22;11525;51.152;4.456;2023-04-25T14:05:14;15.60;74.00
22716;DHT22;11525;51.152;4.456;2023-04-25T14:07:40;15.50;73.30
22716;DHT22;11525;51.152;4.456;2023-04-25T14:10:06;15.40;74.00
22716;DHT22;11525;51.152;4.456;2023-04-25T14:12:32;15.30;73.30
22716;DHT22;11525;51.152;4.456;2023-04-25T14:14:58;15.00;73.10
22716;DHT22;11525;51.152;4.456;2023-04-25T14:17:24;14.90;72.90
22716;DHT22;11525;51.152;4.456;2023-04-25T14:19:50;14.80;73.50
22716;DHT22;11525;51.152;4.456;2023-04-25T14:22:16;14.60;73.70
22716;DHT22;11525;51.152;4.456;2023-04-25T14:24:41;14.40;74.80
22716;DHT22;11525;51.152;4.456;2023-04-25T14:27:07;14.40;75.10
22716;DHT22;11525;51.152;4.456;2023-04-25T14:29:33;14.30;74.80
22716;DHT22;11525;51.152;4.456;2023-04-25T14:31:59;14.20;77.20
22716;DHT22;11525;51.152;4.456;2023-04-25T14:34:25;14.20;81.10
22716;DHT22;11525;51.152;4.456;2023-04-25T14:36:51;14.20;76.50
22716;DHT22;11525;51.152;4.456;2023-04-25T14:39:17;14.30;75.00
22716;DHT22;11525;51.152;4.456;2023-04-25T14:41:43;14.20;75.90
22716;DHT22;11525;51.152;4.456;2023-04-25T14:44:09;13.90;77.20
22716;DHT22;11525;51.152;4.456;2023-04-25T14:46:35;13.50;78.60
22716;DHT22;11525;51.152;4.456;2023-04-25T14:49:01;13.40;79.60
22716;DHT22;11525;51.152;4.456;2023-04-25T14:51:27;13.20;78.50
22716;DHT22;11525;51.152;4.456;2023-04-25T14:53:53;13.00;78.40
22716;DHT22;11525;51.152;4.456;2023-04-25T14:56:19;12.70;80.50
22716;DHT22;11525;51.152;4.456;2023-04-25T14:58:44;12.80;81.80
22716;DHT22;11525;51.152;4.456;2023-04-25T15:01:11;12.90;82.50
22716;DHT22;11525;51.152;4.456;2023-04-25T15:03:38;13.10;82.70
22716;DHT22;11525;51.152;4.456;2023-04-25T15:06:05;13.10;83.00
22716;DHT22;11525;51.152;4.456;2023-04-25T15:08:31;13.10;81.80
22716;DHT22;11525;51.152;4.456;2023-04-25T15:10:58;13.20;82.00
22716;DHT22;11525;51.152;4.456;2023-04-25T15:13:24;13.10;83.00
22716;DHT22;11525;51.152;4.456;2023-04-25T15:15:50;13.10;83.20
22716;DHT22;11525;51.152;4.456;2023-04-25T15:18:22;13.20;83.30
22716;DHT22;11525;51.152;4.456;2023-04-25T15:20:50;13.20;82.30
22716;DHT22;11525;51.152;4.456;2023-04-25T15:23:17;13.30;82.00
22716;DHT22;11525;51.152;4.456;2023-04-25T15:25:42;13.50;82.40
22716;DHT22;11525;51.152;4.456;2023-04-25T15:28:08;13.70;80.90
22716;DHT22;11525;51.152;4.456;2023-04-25T15:30:34;13.90;80.70
22716;DHT22;11525;51.152;4.456;2023-04-25T15:32:59;14.10;90.40
22716;DHT22;11525;51.152;4.456;2023-04-25T15:35:25;14.10;81.10
22716;DHT22;11525;51.152;4.456;2023-04-25T15:37:51;14.00;79.90
22716;DHT22;11525;51.152;4.456;2023-04-25T15:40:17;14.10;79.30
22716;DHT22;11525;51.152;4.456;2023-04-25T15:42:48;13.90;78.40